SBCR/CMG METAR and TAF weather

Enter ICAO airport designator
Station Type Date Time Source
SBCR METAR 2022/11/26 21:00 UTC NOAA

SBCR 262100Z 18007KT 140V230 9999 FEW038 34/17 Q1008


Station Type Date Time Source
SBCR Decoded METAR 2022/11/26 21:00 UTC NOAA

Corumba, Brazil (SBCR) 19-05S 057-30W
Nov 26, 2022 - 04:00 PM EST / 2022.11.26 2100 UTC
Wind: from the S (180 degrees) at 8 MPH (7 KT) (direction variable):0
Visibility: greater than 7 mile(s):0
Sky conditions: mostly clear
Temperature: 93 F (34 C)
Dew Point: 62 F (17 C)
Relative Humidity: 36%
Pressure (altimeter): 29.77 in. Hg (1008 hPa)
ob: SBCR 262100Z 18007KT 140V230 9999 FEW038 34/17 Q1008
cycle: 21

Station Type Date Time Source
SBCR TAF 2022/11/27 12:36 UTC NOAA

TAF TAF SBCR 270735Z 2712/2812 35002KT 9999 FEW020 TX36/2718Z TN24/2807Z
BECMG 2713/2715 09008KT FEW025
BECMG 2717/2719 16007KT
RMK PGM

Example: see airport list